Sea Jet — WDD2601 — position and weather

sailwx.info

Track history (hours):
 
Tides and Currents Weather Stations Pressure Air Temp Water Temp Dewpoint Dewpoint Depression Visibility Wind Speed Wind Dir Waves Ship Positions

Sea Jet

Owner: Cross Sound Ferry Services, Inc., New London, CT. More information available from US FCC via Universal Licensing System and Coast Guard Vessel Documentation Center.

Last reported at 2015-Jul-07 21:34 UTC. Time now 2015-Jul-07 22:00 UTC.
Position N 41°15' W 071°47'.

Length 33 m.

Type: High speed craft. MMSI: 367117430.

Date/timePositionNaut miles runAvg speedWind from/ knotsBaromVisibWave heightAir tempDewpointWater temp
2015-Jul-07 21:34N 41°15' W 071°47'1211.7
2015-Jul-07 20:33N 41°10' W 071°33'0 0.0
2015-Jul-07 19:33N 41°10' W 071°33'0 0.0
2015-Jul-07 18:33N 41°10' W 071°33'0 0.0
2015-Jul-07 17:33N 41°10' W 071°33'1616.1
2015-Jul-07 16:34N 41°15' W 071°54'1110.9
2015-Jul-07 15:33N 41°21' W 072°06'2 2.0
2015-Jul-07 14:34N 41°19' W 072°05'8 8.2
2015-Jul-07 13:34N 41°13' W 072°11'8 8.4
2015-Jul-07 12:34N 41°20' W 072°05'9 8.7
2015-Jul-07 11:34N 41°13' W 072°12'9 0.8
2015-Jul-07 00:33N 41°20' W 072°05'9 9.1
2015-Jul-06 23:34N 41°13' W 072°12'9 8.9
2015-Jul-06 22:33N 41°20' W 072°05'8 8.1
2015-Jul-06 21:34N 41°13' W 072°11'9 8.9
2015-Jul-06 20:33N 41°21' W 072°06'0 0.0
2015-Jul-06 19:33N 41°21' W 072°06'0 0.0
2015-Jul-06 18:33N 41°21' W 072°06'0 0.0
2015-Jul-06 17:33N 41°21' W 072°06'0 0.0
2015-Jul-06 16:33N 41°21' W 072°06'0 0.0
2015-Jul-06 15:33N 41°21' W 072°06'1 1.3
2015-Jul-06 14:33N 41°20' W 072°05'9 9.2
2015-Jul-06 13:33N 41°13' W 072°12'8 7.7
2015-Jul-06 12:33N 41°18' W 072°05'4 0.3
2015-Jul-06 00:18N 41°15' W 072°07'3 0.3
2015-Jul-05 13:29N 41°13' W 072°11'1 0.4
2015-Jul-05 11:28N 41°13' W 072°10'1 0.1
2015-Jul-04 22:15N 41°14' W 072°09'1 1.5
2015-Jul-04 21:30N 41°13' W 072°11'1 0.1
2015-Jul-04 12:14N 41°14' W 072°10'1 0.8
2015-Jul-04 11:29N 41°13' W 072°10'7 0.7
2015-Jul-04 00:34N 41°19' W 072°05'9 9.4
2015-Jul-03 23:33N 41°12' W 072°12'1010.1
2015-Jul-03 22:33N 41°20' W 072°05'9 9.1
2015-Jul-03 21:34N 41°13' W 072°12'10 9.9
2015-Jul-03 20:34N 41°21' W 072°06'0 0.0
2015-Jul-03 19:33N 41°21' W 072°06'0 0.0
2015-Jul-03 18:33N 41°21' W 072°06'0 0.0
2015-Jul-03 17:34N 41°21' W 072°06'0 0.0
2015-Jul-03 16:34N 41°21' W 072°06'0 0.0
2015-Jul-03 15:33N 41°21' W 072°06'5 5.0
2015-Jul-03 14:33N 41°16' W 072°05'5 4.5
2015-Jul-03 13:34N 41°14' W 072°10'4 3.9
2015-Jul-03 12:33N 41°16' W 072°06'7 7.5
2015-Jul-03 11:34N 41°11' W 072°13'1211.8
2015-Jul-03 10:34N 41°21' W 072°06'1 0.1
2015-Jul-03 00:33N 41°20' W 072°05'8 7.8
2015-Jul-02 23:34N 41°14' W 072°11'8 7.6
2015-Jul-02 22:33N 41°20' W 072°05'8 7.7
2015-Jul-02 21:34N 41°13' W 072°11'9 8.8
2015-Jul-02 20:34N 41°21' W 072°06'0 0.0
2015-Jul-02 19:34N 41°21' W 072°06'0 0.0
2015-Jul-02 18:34N 41°21' W 072°06'0 0.0
2015-Jul-02 17:33N 41°21' W 072°06'0 0.0
2015-Jul-02 16:34N 41°21' W 072°06'0 0.0
2015-Jul-02 15:34N 41°21' W 072°06'2 1.9
2015-Jul-02 14:34N 41°20' W 072°05'1110.6
2015-Jul-02 13:34N 41°11' W 072°13'1010.3
2015-Jul-02 12:34N 41°19' W 072°05'9 9.3
2015-Jul-02 11:34N 41°12' W 072°13'1110.8
2015-Jul-02 10:33N 41°21' W 072°06'1 0.1
2015-Jul-02 00:33N 41°21' W 072°05'1111.4
2015-Jul-01 23:34N 41°11' W 072°13'1111.2
2015-Jul-01 22:33N 41°20' W 072°05'9 9.4
2015-Jul-01 21:34N 41°12' W 072°12'1010.1
2015-Jul-01 20:33N 41°21' W 072°06'0 0.0
2015-Jul-01 19:34N 41°21' W 072°06'0 0.0
2015-Jul-01 18:33N 41°21' W 072°06'1312.7
2015-Jul-01 17:34N 41°10' W 072°13'1212.3
2015-Jul-01 16:33N 41°21' W 072°05'0 0.5
2015-Jul-01 15:33N 41°21' W 072°06'1 1.0
2015-Jul-01 14:33N 41°20' W 072°05'1111.0
2015-Jul-01 13:34N 41°11' W 072°13'1110.7
2015-Jul-01 12:34N 41°20' W 072°05'1010.0
2015-Jul-01 11:34N 41°12' W 072°13'10 0.9
2015-Jul-01 00:33N 41°20' W 072°05'1010.3
2015-Jun-30 23:34N 41°12' W 072°13'1010.3
2015-Jun-30 22:34N 41°20' W 072°05'9 9.2
2015-Jun-30 21:34N 41°13' W 072°12'1010.0
2015-Jun-30 20:34N 41°21' W 072°06'0 0.0
2015-Jun-30 15:21N 41°21' W 072°06'2 2.2
2015-Jun-30 14:34N 41°20' W 072°05'8 8.2
2015-Jun-30 13:34N 41°13' W 072°11'8 8.4
2015-Jun-30 12:34N 41°20' W 072°05'8 8.3
2015-Jun-30 11:34N 41°13' W 072°11'9 0.8
2015-Jun-30 00:33N 41°20' W 072°05'10 9.7
2015-Jun-29 23:34N 41°12' W 072°12'10 9.7
2015-Jun-29 22:34N 41°20' W 072°05'9 9.1
2015-Jun-29 21:34N 41°13' W 072°11'10 9.8
2015-Jun-29 20:33N 41°21' W 072°06'0 0.0
2015-Jun-29 19:33N 41°21' W 072°06'0 0.0
2015-Jun-29 18:33N 41°21' W 072°06'0 0.0
2015-Jun-29 17:33N 41°21' W 072°06'0 0.0
2015-Jun-29 16:33N 41°21' W 072°06'0 0.0
2015-Jun-29 15:33N 41°21' W 072°06'2 1.7
2015-Jun-29 14:34N 41°20' W 072°05'8 8.4
2015-Jun-29 13:34N 41°13' W 072°11'9 8.5
2015-Jun-29 12:34N 41°20' W 072°05'9 9.3
2015-Jun-29 11:34N 41°12' W 072°12'1010.3
2015-Jun-29 10:33N 41°21' W 072°06'2 0.2
2015-Jun-29 00:34N 41°20' W 072°05'1010.4
2015-Jun-28 23:34N 41°12' W 072°13'1010.4
2015-Jun-28 22:34N 41°20' W 072°05'10 9.6
2015-Jun-28 21:34N 41°12' W 072°12'1110.6
2015-Jun-28 20:33N 41°21' W 072°06'0 0.0
2015-Jun-28 19:33N 41°21' W 072°06'0 0.0
2015-Jun-28 18:33N 41°21' W 072°06'0 0.0
2015-Jun-28 17:33N 41°21' W 072°06'0 0.0
2015-Jun-28 16:33N 41°21' W 072°06'0 0.0
2015-Jun-28 15:33N 41°21' W 072°06'5 4.5
2015-Jun-28 14:34N 41°17' W 072°05'7 7.2
2015-Jun-28 13:34N 41°12' W 072°12'1110.8
2015-Jun-28 12:33N 41°21' W 072°06'0 0.0
2015-Jun-28 11:33N 41°21' W 072°06'0 0.0
2015-Jun-28 10:33N 41°21' W 072°06'2 0.2
2015-Jun-28 00:34N 41°19' W 072°05'9 9.4
2015-Jun-27 23:34N 41°12' W 072°13'10 9.9
2015-Jun-27 22:34N 41°20' W 072°05'1010.2
2015-Jun-27 21:34N 41°12' W 072°13'  
Track history (hours):
 
Tides and Currents Weather Stations Pressure Air Temp Water Temp Dewpoint Dewpoint Depression Visibility Wind Speed Wind Dir Waves Ship Positions

Sea Jet

Owner: Cross Sound Ferry Services, Inc., New London, CT. More information available from US FCC via Universal Licensing System and Coast Guard Vessel Documentation Center.

Last reported at 2015-Jul-07 21:34 UTC. Time now 2015-Jul-07 22:00 UTC.
Position N 41°15' W 071°47'.

Length 33 m.

Type: High speed craft. MMSI: 367117430.

Date/timePositionNaut miles runAvg speedWind from/ knotsBaromVisibWave heightAir tempDewpointWater temp
2015-Jul-07 21:34N 41°15' W 071°47'1211.7
2015-Jul-07 20:33N 41°10' W 071°33'0 0.0
2015-Jul-07 19:33N 41°10' W 071°33'0 0.0
2015-Jul-07 18:33N 41°10' W 071°33'0 0.0
2015-Jul-07 17:33N 41°10' W 071°33'1616.1
2015-Jul-07 16:34N 41°15' W 071°54'1110.9
2015-Jul-07 15:33N 41°21' W 072°06'2 2.0
2015-Jul-07 14:34N 41°19' W 072°05'8 8.2
2015-Jul-07 13:34N 41°13' W 072°11'8 8.4
2015-Jul-07 12:34N 41°20' W 072°05'9 8.7
2015-Jul-07 11:34N 41°13' W 072°12'9 0.8
2015-Jul-07 00:33N 41°20' W 072°05'9 9.1
2015-Jul-06 23:34N 41°13' W 072°12'9 8.9
2015-Jul-06 22:33N 41°20' W 072°05'8 8.1
2015-Jul-06 21:34N 41°13' W 072°11'9 8.9
2015-Jul-06 20:33N 41°21' W 072°06'0 0.0
2015-Jul-06 19:33N 41°21' W 072°06'0 0.0
2015-Jul-06 18:33N 41°21' W 072°06'0 0.0
2015-Jul-06 17:33N 41°21' W 072°06'0 0.0
2015-Jul-06 16:33N 41°21' W 072°06'0 0.0
2015-Jul-06 15:33N 41°21' W 072°06'1 1.3
2015-Jul-06 14:33N 41°20' W 072°05'9 9.2
2015-Jul-06 13:33N 41°13' W 072°12'8 7.7
2015-Jul-06 12:33N 41°18' W 072°05'4 0.3
2015-Jul-06 00:18N 41°15' W 072°07'3 0.3
2015-Jul-05 13:29N 41°13' W 072°11'1 0.4
2015-Jul-05 11:28N 41°13' W 072°10'1 0.1
2015-Jul-04 22:15N 41°14' W 072°09'1 1.5
2015-Jul-04 21:30N 41°13' W 072°11'1 0.1
2015-Jul-04 12:14N 41°14' W 072°10'1 0.8
2015-Jul-04 11:29N 41°13' W 072°10'7 0.7
2015-Jul-04 00:34N 41°19' W 072°05'9 9.4
2015-Jul-03 23:33N 41°12' W 072°12'1010.1
2015-Jul-03 22:33N 41°20' W 072°05'9 9.1
2015-Jul-03 21:34N 41°13' W 072°12'10 9.9
2015-Jul-03 20:34N 41°21' W 072°06'0 0.0
2015-Jul-03 19:33N 41°21' W 072°06'0 0.0
2015-Jul-03 18:33N 41°21' W 072°06'0 0.0
2015-Jul-03 17:34N 41°21' W 072°06'0 0.0
2015-Jul-03 16:34N 41°21' W 072°06'0 0.0
2015-Jul-03 15:33N 41°21' W 072°06'5 5.0
2015-Jul-03 14:33N 41°16' W 072°05'5 4.5
2015-Jul-03 13:34N 41°14' W 072°10'4 3.9
2015-Jul-03 12:33N 41°16' W 072°06'7 7.5
2015-Jul-03 11:34N 41°11' W 072°13'1211.8
2015-Jul-03 10:34N 41°21' W 072°06'1 0.1
2015-Jul-03 00:33N 41°20' W 072°05'8 7.8
2015-Jul-02 23:34N 41°14' W 072°11'8 7.6
2015-Jul-02 22:33N 41°20' W 072°05'8 7.7
2015-Jul-02 21:34N 41°13' W 072°11'9 8.8
2015-Jul-02 20:34N 41°21' W 072°06'0 0.0
2015-Jul-02 19:34N 41°21' W 072°06'0 0.0
2015-Jul-02 18:34N 41°21' W 072°06'0 0.0
2015-Jul-02 17:33N 41°21' W 072°06'0 0.0
2015-Jul-02 16:34N 41°21' W 072°06'0 0.0
2015-Jul-02 15:34N 41°21' W 072°06'2 1.9
2015-Jul-02 14:34N 41°20' W 072°05'1110.6
2015-Jul-02 13:34N 41°11' W 072°13'1010.3
2015-Jul-02 12:34N 41°19' W 072°05'9 9.3
2015-Jul-02 11:34N 41°12' W 072°13'1110.8
2015-Jul-02 10:33N 41°21' W 072°06'1 0.1
2015-Jul-02 00:33N 41°21' W 072°05'1111.4
2015-Jul-01 23:34N 41°11' W 072°13'1111.2
2015-Jul-01 22:33N 41°20' W 072°05'9 9.4
2015-Jul-01 21:34N 41°12' W 072°12'1010.1
2015-Jul-01 20:33N 41°21' W 072°06'0 0.0
2015-Jul-01 19:34N 41°21' W 072°06'0 0.0
2015-Jul-01 18:33N 41°21' W 072°06'1312.7
2015-Jul-01 17:34N 41°10' W 072°13'1212.3
2015-Jul-01 16:33N 41°21' W 072°05'0 0.5
2015-Jul-01 15:33N 41°21' W 072°06'1 1.0
2015-Jul-01 14:33N 41°20' W 072°05'1111.0
2015-Jul-01 13:34N 41°11' W 072°13'1110.7
2015-Jul-01 12:34N 41°20' W 072°05'1010.0
2015-Jul-01 11:34N 41°12' W 072°13'10 0.9
2015-Jul-01 00:33N 41°20' W 072°05'1010.3
2015-Jun-30 23:34N 41°12' W 072°13'1010.3
2015-Jun-30 22:34N 41°20' W 072°05'9 9.2
2015-Jun-30 21:34N 41°13' W 072°12'1010.0
2015-Jun-30 20:34N 41°21' W 072°06'0 0.0
2015-Jun-30 15:21N 41°21' W 072°06'2 2.2
2015-Jun-30 14:34N 41°20' W 072°05'8 8.2
2015-Jun-30 13:34N 41°13' W 072°11'8 8.4
2015-Jun-30 12:34N 41°20' W 072°05'8 8.3
2015-Jun-30 11:34N 41°13' W 072°11'9 0.8
2015-Jun-30 00:33N 41°20' W 072°05'10 9.7
2015-Jun-29 23:34N 41°12' W 072°12'10 9.7
2015-Jun-29 22:34N 41°20' W 072°05'9 9.1
2015-Jun-29 21:34N 41°13' W 072°11'10 9.8
2015-Jun-29 20:33N 41°21' W 072°06'0 0.0
2015-Jun-29 19:33N 41°21' W 072°06'0 0.0
2015-Jun-29 18:33N 41°21' W 072°06'0 0.0
2015-Jun-29 17:33N 41°21' W 072°06'0 0.0
2015-Jun-29 16:33N 41°21' W 072°06'0 0.0
2015-Jun-29 15:33N 41°21' W 072°06'2 1.7
2015-Jun-29 14:34N 41°20' W 072°05'8 8.4
2015-Jun-29 13:34N 41°13' W 072°11'9 8.5
2015-Jun-29 12:34N 41°20' W 072°05'9 9.3
2015-Jun-29 11:34N 41°12' W 072°12'1010.3
2015-Jun-29 10:33N 41°21' W 072°06'2 0.2
2015-Jun-29 00:34N 41°20' W 072°05'1010.4
2015-Jun-28 23:34N 41°12' W 072°13'1010.4
2015-Jun-28 22:34N 41°20' W 072°05'10 9.6
2015-Jun-28 21:34N 41°12' W 072°12'1110.6
2015-Jun-28 20:33N 41°21' W 072°06'0 0.0
2015-Jun-28 19:33N 41°21' W 072°06'0 0.0
2015-Jun-28 18:33N 41°21' W 072°06'0 0.0
2015-Jun-28 17:33N 41°21' W 072°06'0 0.0
2015-Jun-28 16:33N 41°21' W 072°06'0 0.0
2015-Jun-28 15:33N 41°21' W 072°06'5 4.5
2015-Jun-28 14:34N 41°17' W 072°05'7 7.2
2015-Jun-28 13:34N 41°12' W 072°12'1110.8
2015-Jun-28 12:33N 41°21' W 072°06'0 0.0
2015-Jun-28 11:33N 41°21' W 072°06'0 0.0
2015-Jun-28 10:33N 41°21' W 072°06'2 0.2
2015-Jun-28 00:34N 41°19' W 072°05'9 9.4
2015-Jun-27 23:34N 41°12' W 072°13'10 9.9
2015-Jun-27 22:34N 41°20' W 072°05'1010.2
2015-Jun-27 21:34N 41°12' W 072°13'  

Dump ship's entire track history